Time;durP1;ratioP1;P1;durP2;ratioP2;P2;SDS_P1;SDS_P2;PMS_P1;PMS_P2;Temp;Humidity;BMP_temperature;BMP_pressure;BME280_temperature;BME280_humidity;BME280_pressure;Samples;Min_cycle;Max_cycle;Signal;HPM_P1;HPM_P2
2022/10/10 00:02:12;;;;;;;6.93;5.55;;;;;;;;;;6247588;22;20043;-77
2022/10/10 00:04:39;;;;;;;5.82;4.70;;;;;;;;;;6247756;23;20003;-77
2022/10/10 00:07:04;;;;;;;7.38;5.20;;;;;;;;;;6247814;23;20057;-77
2022/10/10 00:09:30;;;;;;;7.63;4.70;;;;;;;;;;6247747;23;20079;-77
2022/10/10 00:11:56;;;;;;;5.00;4.50;;;;;;;;;;6247715;22;20000;-77
2022/10/10 00:14:21;;;;;;;5.13;4.60;;;;;;;;;;6247825;23;20012;-78
2022/10/10 00:16:46;;;;;;;7.28;5.03;;;;;;;;;;6247699;23;20331;-77
2022/10/10 00:19:12;;;;;;;7.78;5.75;;;;;;;;;;6247519;23;20000;-77
2022/10/10 00:21:38;;;;;;;6.22;5.03;;;;;;;;;;6247714;22;20475;-77
2022/10/10 00:24:03;;;;;;;5.50;5.00;;;;;;;;;;6247702;23;20008;-78
2022/10/10 00:26:29;;;;;;;7.85;6.13;;;;;;;;;;6247435;23;20316;-77
2022/10/10 00:28:54;;;;;;;7.85;6.10;;;;;;;;;;6247666;23;20071;-77
2022/10/10 00:31:20;;;;;;;9.65;5.57;;;;;;;;;;6247524;23;20000;-77
2022/10/10 00:33:45;;;;;;;6.80;5.82;;;;;;;;;;6247440;23;20420;-77
2022/10/10 00:36:11;;;;;;;7.05;5.05;;;;;;;;;;6247471;23;20011;-77
2022/10/10 00:38:36;;;;;;;5.53;4.97;;;;;;;;;;6246882;23;20423;-77
2022/10/10 00:41:02;;;;;;;6.53;5.43;;;;;;;;;;6247331;23;20011;-77
2022/10/10 00:43:28;;;;;;;6.93;5.22;;;;;;;;;;6247319;22;20077;-77
2022/10/10 00:45:54;;;;;;;8.20;5.75;;;;;;;;;;6247505;23;20000;-77
2022/10/10 00:48:35;;;;;;;6.13;5.50;;;;;;;;;;6247096;23;20054;-77
2022/10/10 00:51:08;;;;;;;5.88;5.20;;;;;;;;;;6247490;23;20004;-77
2022/10/10 00:53:56;;;;;;;6.50;5.90;;;;;;;;;;6247256;22;19996;-77
2022/10/10 00:56:27;;;;;;;6.35;5.07;;;;;;;;;;6247140;23;20323;-77
2022/10/10 00:58:55;;;;;;;7.25;5.25;;;;;;;;;;6247097;23;20028;-77
2022/10/10 01:01:21;;;;;;;6.10;5.50;;;;;;;;;;6247079;22;20447;-77
2022/10/10 01:03:46;;;;;;;5.93;5.10;;;;;;;;;;6247403;23;20000;-77
2022/10/10 01:06:12;;;;;;;7.68;5.88;;;;;;;;;;6247173;23;20028;-77
2022/10/10 01:08:38;;;;;;;9.73;5.47;;;;;;;;;;6247175;23;20030;-77
2022/10/10 01:11:21;;;;;;;7.88;5.65;;;;;;;;;;6247130;23;20297;-77
2022/10/10 01:14:22;;;;;;;6.22;5.60;;;;;;;;;;6247101;23;20008;-77
2022/10/10 01:17:13;;;;;;;5.75;5.25;;;;;;;;;;6247230;23;20305;-77
2022/10/10 01:19:50;;;;;;;6.95;5.10;;;;;;;;;;6247018;23;20478;-77
2022/10/10 01:22:16;;;;;;;5.90;4.82;;;;;;;;;;6246741;22;20415;-77
2022/10/10 01:25:11;;;;;;;7.07;5.53;;;;;;;;;;6247067;23;20054;-77
2022/10/10 01:28:02;;;;;;;6.43;5.07;;;;;;;;;;6246946;23;20020;-77
2022/10/10 01:30:30;;;;;;;5.88;5.28;;;;;;;;;;6176367;23;20008;-77
2022/10/10 01:33:09;;;;;;;6.43;5.22;;;;;;;;;;6246745;22;20049;-77
2022/10/10 01:35:46;;;;;;;6.03;4.90;;;;;;;;;;6247035;23;20004;-77
2022/10/10 01:38:29;;;;;;;6.38;5.78;;;;;;;;;;6246895;23;20022;-77
2022/10/10 01:40:58;;;;;;;5.95;5.13;;;;;;;;;;6246629;23;20041;-77
2022/10/10 01:43:25;;;;;;;6.07;5.00;;;;;;;;;;6246804;22;20011;-77
2022/10/10 01:45:52;;;;;;;5.82;5.22;;;;;;;;;;6246574;23;20003;-77
2022/10/10 01:48:21;;;;;;;7.28;5.93;;;;;;;;;;6246746;23;20336;-77
2022/10/10 01:51:08;;;;;;;8.85;5.88;;;;;;;;;;6246433;23;20008;-77
2022/10/10 01:54:09;;;;;;;8.93;6.03;;;;;;;;;;6246706;22;20538;-77
2022/10/10 01:56:59;;;;;;;8.32;6.00;;;;;;;;;;6235982;23;20058;-77
2022/10/10 01:59:43;;;;;;;7.45;5.78;;;;;;;;;;6246497;23;20000;-77
2022/10/10 02:02:23;;;;;;;8.07;6.18;;;;;;;;;;6246514;22;20339;-77
2022/10/10 02:04:57;;;;;;;7.00;5.35;;;;;;;;;;6246669;23;20006;-77
2022/10/10 02:07:38;;;;;;;6.40;5.32;;;;;;;;;;6219868;23;20375;-77
2022/10/10 02:10:06;;;;;;;6.85;5.65;;;;;;;;;;6246798;23;20007;-77
2022/10/10 02:12:35;;;;;;;5.93;5.38;;;;;;;;;;6246600;22;20077;-78
2022/10/10 02:15:11;;;;;;;5.60;5.10;;;;;;;;;;6246746;23;20015;-77
2022/10/10 02:17:38;;;;;;;6.10;5.57;;;;;;;;;;6246574;23;20355;-77
2022/10/10 02:20:06;;;;;;;6.03;5.00;;;;;;;;;;6246352;23;20000;-77
2022/10/10 02:22:33;;;;;;;8.65;5.65;;;;;;;;;;6246394;22;19996;-77
2022/10/10 02:24:59;;;;;;;7.53;5.43;;;;;;;;;;6246529;23;20067;-77
2022/10/10 02:27:36;;;;;;;6.65;5.95;;;;;;;;;;6246328;23;20494;-77
2022/10/10 02:30:03;;;;;;;5.63;5.13;;;;;;;;;;6246316;23;20027;-77
2022/10/10 02:32:35;;;;;;;7.82;5.63;;;;;;;;;;6219403;23;20060;-77
2022/10/10 02:35:07;;;;;;;7.47;5.20;;;;;;;;;;6246245;23;20016;-77
2022/10/10 02:37:34;;;;;;;6.70;5.10;;;;;;;;;;6246454;23;20026;-77
2022/10/10 02:40:02;;;;;;;6.32;4.85;;;;;;;;;;6246369;23;20007;-77
2022/10/10 02:42:28;;;;;;;6.82;5.18;;;;;;;;;;6246420;22;20032;-77
2022/10/10 02:44:55;;;;;;;6.63;5.28;;;;;;;;;;6246261;23;20366;-77
2022/10/10 02:47:21;;;;;;;6.45;5.18;;;;;;;;;;6246340;23;20000;-77
2022/10/10 02:49:47;;;;;;;8.43;5.00;;;;;;;;;;6246416;23;20439;-77
2022/10/10 02:52:14;;;;;;;5.45;4.95;;;;;;;;;;6246506;22;20004;-77
2022/10/10 02:54:39;;;;;;;7.28;5.10;;;;;;;;;;6246130;23;20067;-77
2022/10/10 02:57:05;;;;;;;7.70;5.00;;;;;;;;;;6246413;23;20337;-77
2022/10/10 02:59:31;;;;;;;6.05;5.32;;;;;;;;;;6246322;23;20000;-77
2022/10/10 03:01:56;;;;;;;8.90;5.60;;;;;;;;;;6247110;22;20015;-77
2022/10/10 03:04:21;;;;;;;5.75;5.07;;;;;;;;;;6248387;23;20000;-77
2022/10/10 03:06:47;;;;;;;6.65;5.22;;;;;;;;;;6248388;23;20420;-77
2022/10/10 03:09:12;;;;;;;6.03;5.43;;;;;;;;;;6248534;23;20000;-77
2022/10/10 03:11:38;;;;;;;7.22;5.20;;;;;;;;;;6248078;22;19996;-77
2022/10/10 03:14:03;;;;;;;8.30;5.68;;;;;;;;;;6248305;23;20027;-78
2022/10/10 03:16:29;;;;;;;5.68;5.10;;;;;;;;;;6248267;23;20004;-78
2022/10/10 03:18:54;;;;;;;6.60;5.85;;;;;;;;;;6248451;23;20000;-78
2022/10/10 03:21:19;;;;;;;6.13;5.53;;;;;;;;;;6247991;23;20015;-78
2022/10/10 03:23:45;;;;;;;6.63;5.57;;;;;;;;;;6248371;23;20311;-78
2022/10/10 03:26:10;;;;;;;6.47;5.72;;;;;;;;;;6248100;23;20090;-78
2022/10/10 03:28:36;;;;;;;8.02;5.00;;;;;;;;;;6248199;23;20011;-78
2022/10/10 03:31:03;;;;;;;6.25;5.45;;;;;;;;;;6247996;23;20451;-78
2022/10/10 03:33:28;;;;;;;7.88;5.43;;;;;;;;;;6247945;22;19996;-78
2022/10/10 03:35:53;;;;;;;5.90;5.30;;;;;;;;;;6248235;23;20007;-78
2022/10/10 03:38:19;;;;;;;5.43;4.93;;;;;;;;;;6247961;23;20000;-78
2022/10/10 03:40:45;;;;;;;6.32;5.00;;;;;;;;;;6247950;23;20008;-77
2022/10/10 03:43:11;;;;;;;5.60;5.07;;;;;;;;;;6247838;22;20058;-78
2022/10/10 03:45:37;;;;;;;7.13;5.15;;;;;;;;;;6247979;23;20011;-78
2022/10/10 03:48:04;;;;;;;5.97;5.18;;;;;;;;;;6247796;23;19996;-78
2022/10/10 03:50:29;;;;;;;6.30;5.70;;;;;;;;;;6247837;23;20343;-77
2022/10/10 03:52:54;;;;;;;6.13;5.18;;;;;;;;;;6247933;22;20007;-78
2022/10/10 03:55:20;;;;;;;6.55;5.82;;;;;;;;;;6248001;23;20000;-77
2022/10/10 03:57:46;;;;;;;6.72;5.35;;;;;;;;;;6247716;23;20367;-78
2022/10/10 04:00:12;;;;;;;6.35;5.38;;;;;;;;;;6247436;23;20004;-78
2022/10/10 04:02:37;;;;;;;8.93;5.65;;;;;;;;;;6248241;22;20496;-78
2022/10/10 04:05:04;;;;;;;5.90;5.30;;;;;;;;;;6247716;23;20008;-78
2022/10/10 04:07:30;;;;;;;6.80;5.80;;;;;;;;;;6247831;23;20007;-78
2022/10/10 04:09:56;;;;;;;6.05;5.53;;;;;;;;;;6247898;23;20401;-78
2022/10/10 04:12:21;;;;;;;5.93;5.32;;;;;;;;;;6246913;22;20044;-78
2022/10/10 04:14:47;;;;;;;7.22;5.68;;;;;;;;;;6247406;23;20090;-78
2022/10/10 04:17:12;;;;;;;5.93;5.30;;;;;;;;;;6247983;23;20033;-78
2022/10/10 04:19:37;;;;;;;7.38;5.50;;;;;;;;;;6247763;23;20360;-78
2022/10/10 04:22:03;;;;;;;5.97;5.00;;;;;;;;;;6247456;22;20031;-78
2022/10/10 04:24:28;;;;;;;6.40;5.80;;;;;;;;;;6247616;23;20040;-78
2022/10/10 04:26:54;;;;;;;7.05;5.75;;;;;;;;;;6247460;23;20432;-78
2022/10/10 04:29:19;;;;;;;7.15;5.13;;;;;;;;;;6247455;23;20000;-78
2022/10/10 04:31:45;;;;;;;6.82;6.00;;;;;;;;;;6247437;22;20087;-78
2022/10/10 04:34:10;;;;;;;5.88;5.28;;;;;;;;;;6247403;23;20007;-78
2022/10/10 04:36:36;;;;;;;6.88;5.50;;;;;;;;;;6247403;23;20007;-78
2022/10/10 04:39:01;;;;;;;6.75;5.05;;;;;;;;;;6247482;23;20000;-78
2022/10/10 04:41:27;;;;;;;8.30;5.40;;;;;;;;;;6247071;22;20034;-78
2022/10/10 04:43:52;;;;;;;6.65;5.95;;;;;;;;;;6247328;23;20427;-78
2022/10/10 04:46:17;;;;;;;6.00;5.45;;;;;;;;;;6247298;23;19996;-77
2022/10/10 04:48:43;;;;;;;5.88;5.10;;;;;;;;;;6247264;23;20004;-77
2022/10/10 04:51:09;;;;;;;6.00;4.85;;;;;;;;;;6247193;23;20327;-77
2022/10/10 04:53:34;;;;;;;6.63;5.28;;;;;;;;;;6247273;22;19996;-77
2022/10/10 04:56:00;;;;;;;6.28;5.65;;;;;;;;;;6247050;23;20008;-77
2022/10/10 04:58:25;;;;;;;5.85;5.15;;;;;;;;;;6247149;23;20000;-77
2022/10/10 05:00:52;;;;;;;5.85;5.25;;;;;;;;;;6247010;23;20004;-77
2022/10/10 05:03:17;;;;;;;5.85;4.82;;;;;;;;;;6247301;22;20016;-78
2022/10/10 05:05:43;;;;;;;6.63;4.85;;;;;;;;;;6247291;23;19996;-81
2022/10/10 05:08:08;;;;;;;7.47;6.03;;;;;;;;;;6247413;23;20004;-79
2022/10/10 05:10:38;;;;;;;5.53;4.88;;;;;;;;;;6247004;23;20087;-78
2022/10/10 05:13:04;;;;;;;;;;;;;;;;;;6247504;22;20339;-78
2022/10/10 05:15:30;;;;;;;6.75;4.97;;;;;;;;;;6220147;23;19914;-78
2022/10/10 05:17:55;;;;;;;7.53;5.43;;;;;;;;;;6247012;23;20000;-79
2022/10/10 05:20:20;;;;;;;6.43;5.40;;;;;;;;;;6247060;23;20000;-77
2022/10/10 05:22:46;;;;;;;5.53;5.00;;;;;;;;;;6247003;22;20332;-78
2022/10/10 05:25:11;;;;;;;5.28;4.78;;;;;;;;;;6246789;23;20365;-80
2022/10/10 05:27:37;;;;;;;7.32;5.72;;;;;;;;;;6246634;23;20443;-78
2022/10/10 05:30:04;;;;;;;7.60;5.63;;;;;;;;;;6247301;23;20000;-81
2022/10/10 05:32:29;;;;;;;6.75;5.60;;;;;;;;;;6247154;22;20416;-85
2022/10/10 05:34:54;;;;;;;6.00;5.38;;;;;;;;;;6247769;23;20007;-81
2022/10/10 05:37:20;;;;;;;6.55;5.70;;;;;;;;;;6247124;23;20361;-88
2022/10/10 05:39:46;;;;;;;6.28;5.30;;;;;;;;;;6247560;23;20090;-91
2022/10/10 05:42:12;;;;;;;7.38;5.93;;;;;;;;;;6220464;23;20058;-86
2022/10/10 05:44:38;;;;;;;8.27;5.47;;;;;;;;;;6247406;23;20015;-84
2022/10/10 05:47:03;;;;;;;6.15;5.53;;;;;;;;;;6220852;23;20008;-89
2022/10/10 05:49:29;;;;;;;6.47;5.90;;;;;;;;;;6247503;23;20071;-83
2022/10/10 05:51:54;;;;;;;9.02;6.70;;;;;;;;;;6247195;22;20011;-85
2022/10/10 05:54:21;;;;;;;7.57;6.60;;;;;;;;;;6246732;23;20004;-83
2022/10/10 05:56:46;;;;;;;7.65;5.70;;;;;;;;;;6219849;23;20024;-83
2022/10/10 05:59:12;;;;;;;6.50;5.65;;;;;;;;;;6246783;23;20054;-82
2022/10/10 06:01:37;;;;;;;5.95;5.35;;;;;;;;;;6246346;22;20019;-80
2022/10/10 06:04:03;;;;;;;6.63;5.40;;;;;;;;;;6246632;23;20415;-80
2022/10/10 06:06:29;;;;;;;6.10;5.50;;;;;;;;;;6246876;23;20004;-85
2022/10/10 06:08:54;;;;;;;9.25;6.93;;;;;;;;;;6246883;23;20027;-86
2022/10/10 06:11:22;;;;;;;10.38;7.97;;;;;;;;;;6247141;23;20004;-83
2022/10/10 06:13:51;;;;;;;8.73;6.32;;;;;;;;;;6247102;23;20000;-85
2022/10/10 06:16:17;;;;;;;6.72;6.00;;;;;;;;;;6246683;23;20012;-81
2022/10/10 06:18:43;;;;;;;6.70;5.97;;;;;;;;;;6247612;23;20000;-82
2022/10/10 06:21:10;;;;;;;8.40;6.90;;;;;;;;;;6246877;23;20011;-81
2022/10/10 06:23:36;;;;;;;6.55;5.50;;;;;;;;;;6246973;22;20138;-84
2022/10/10 06:26:01;;;;;;;7.28;6.45;;;;;;;;;;6246540;23;20381;-84
2022/10/10 06:28:27;;;;;;;6.38;5.78;;;;;;;;;;6220042;23;20387;-80
2022/10/10 06:30:52;;;;;;;10.25;6.50;;;;;;;;;;6246816;23;20004;-82
2022/10/10 06:33:18;;;;;;;7.70;5.93;;;;;;;;;;6246402;22;20354;-82
2022/10/10 06:35:47;;;;;;;8.18;6.95;;;;;;;;;;6219042;23;20030;-84
2022/10/10 06:38:14;;;;;;;7.17;5.83;;;;;;;;;;6220471;23;20373;-82
2022/10/10 06:40:40;;;;;;;7.45;6.72;;;;;;;;;;6246321;23;20031;-82
2022/10/10 06:43:10;;;;;;;7.05;6.35;;;;;;;;;;6246498;22;20054;-81
2022/10/10 06:45:40;;;;;;;8.60;6.85;;;;;;;;;;6246683;23;20070;-79
2022/10/10 06:48:06;;;;;;;6.57;5.97;;;;;;;;;;6246824;23;20026;-83
2022/10/10 06:50:31;;;;;;;8.98;6.40;;;;;;;;;;6247038;23;20440;-91
2022/10/10 06:52:57;;;;;;;7.65;6.15;;;;;;;;;;6219999;23;20000;-84
2022/10/10 06:55:23;;;;;;;8.18;5.75;;;;;;;;;;6248639;23;20127;-79
2022/10/10 06:57:48;;;;;;;8.50;6.45;;;;;;;;;;6248316;23;20371;-83
2022/10/10 07:00:14;;;;;;;6.78;5.72;;;;;;;;;;6223420;23;20091;-79
2022/10/10 07:02:40;;;;;;;8.75;5.82;;;;;;;;;;6246369;22;20000;-80
2022/10/10 07:05:10;;;;;;;5.78;5.25;;;;;;;;;;6246512;23;20358;-82
2022/10/10 07:07:37;;;;;;;6.03;5.43;;;;;;;;;;6246158;23;20004;-79
2022/10/10 07:10:03;;;;;;;7.10;6.00;;;;;;;;;;6246124;23;19996;-79
2022/10/10 08:06:33;;;;;;;6.22;5.53;;;;;;;;;;6211012;22;20450;-81
2022/10/10 08:08:59;;;;;;;6.60;5.55;;;;;;;;;;6247859;23;20012;-79
2022/10/10 08:11:24;;;;;;;7.43;5.28;;;;;;;;;;6248097;23;20004;-81
2022/10/10 08:13:50;;;;;;;8.18;5.35;;;;;;;;;;6248184;22;20031;-83
2022/10/10 08:16:16;;;;;;;7.47;5.65;;;;;;;;;;6248316;23;20004;-83
2022/10/10 08:18:42;;;;;;;8.75;6.00;;;;;;;;;;6248058;23;20004;-86
2022/10/10 08:21:09;;;;;;;9.50;6.00;;;;;;;;;;6247789;23;20043;-89
2022/10/10 08:23:35;;;;;;;10.18;6.82;;;;;;;;;;6247994;22;20027;-87
2022/10/10 08:26:05;;;;;;;7.18;5.80;;;;;;;;;;6248731;23;20004;-86
2022/10/10 08:28:32;;;;;;;9.25;6.10;;;;;;;;;;6247846;23;20004;-86
2022/10/10 08:30:57;;;;;;;7.13;5.90;;;;;;;;;;6221016;23;20035;-87
2022/10/10 08:33:27;;;;;;;6.20;5.32;;;;;;;;;;6247980;22;20376;-87
2022/10/10 08:35:52;;;;;;;;;;;;;;;;;;6248483;23;20004;-88
2022/10/10 08:38:18;;;;;;;6.47;5.88;;;;;;;;;;6248060;23;20376;-86
2022/10/10 08:40:47;;;;;;;8.18;6.00;;;;;;;;;;6247935;23;20000;-86
2022/10/10 08:43:36;;;;;;;7.57;5.47;;;;;;;;;;6247927;22;20018;-87
2022/10/10 08:46:15;;;;;;;7.40;5.70;;;;;;;;;;6221208;23;20004;-87
2022/10/10 08:48:44;;;;;;;7.05;5.93;;;;;;;;;;6248273;23;20004;-89
2022/10/10 08:51:16;;;;;;;7.22;5.75;;;;;;;;;;6221342;23;20007;-90
2022/10/10 08:53:51;;;;;;;8.18;6.20;;;;;;;;;;6221203;23;20059;-90
2022/10/10 08:56:22;;;;;;;10.23;6.88;;;;;;;;;;6221104;23;20000;-87
2022/10/10 08:58:54;;;;;;;7.88;6.93;;;;;;;;;;6220262;23;20054;-86
2022/10/10 09:01:24;;;;;;;8.80;6.53;;;;;;;;;;6220645;23;20014;-85
2022/10/10 09:03:52;;;;;;;11.57;6.15;;;;;;;;;;6247519;22;20007;-84
2022/10/10 09:06:36;;;;;;;8.27;5.75;;;;;;;;;;6247586;23;20008;-83
2022/10/10 09:09:27;;;;;;;6.13;5.53;;;;;;;;;;6220601;23;20016;-85
2022/10/10 09:11:56;;;;;;;8.68;6.13;;;;;;;;;;6221059;23;20008;-83
2022/10/10 09:14:54;;;;;;;9.38;6.55;;;;;;;;;;6219887;23;20005;-84
2022/10/10 09:17:38;;;;;;;6.30;5.70;;;;;;;;;;6221414;23;20346;-85
2022/10/10 09:20:09;;;;;;;8.68;6.30;;;;;;;;;;6247807;23;20008;-86
2022/10/10 09:22:49;;;;;;;9.68;6.00;;;;;;;;;;6247474;23;20004;-87
2022/10/10 09:25:21;;;;;;;9.23;6.40;;;;;;;;;;6248173;22;20011;-83
2022/10/10 09:28:06;;;;;;;8.50;6.00;;;;;;;;;;6247466;23;20004;-85
2022/10/10 09:30:36;;;;;;;6.32;5.60;;;;;;;;;;6247268;23;20004;-86
2022/10/10 09:33:30;;;;;;;7.88;5.15;;;;;;;;;;6220072;23;20308;-86
2022/10/10 09:35:58;;;;;;;7.45;5.68;;;;;;;;;;6247667;23;20485;-85
2022/10/10 09:38:46;;;;;;;6.57;5.75;;;;;;;;;;6248118;23;20011;-83
2022/10/10 09:41:34;;;;;;;7.50;5.33;;;;;;;;;;6247007;23;20301;-92
2022/10/10 09:44:06;;;;;;;6.75;5.30;;;;;;;;;;6246676;22;20257;-85
2022/10/10 09:46:32;;;;;;;7.63;5.50;;;;;;;;;;6249585;23;20412;-95
2022/10/10 09:48:57;;;;;;;7.03;5.43;;;;;;;;;;6221700;23;20003;-94
2022/10/10 09:51:23;;;;;;;6.95;5.50;;;;;;;;;;6249650;23;19996;-96
2022/10/10 09:53:49;;;;;;;6.68;5.80;;;;;;;;;;6220686;23;20012;-89
2022/10/10 09:56:20;;;;;;;9.25;5.57;;;;;;;;;;6248148;23;19996;-93
2022/10/10 09:58:50;;;;;;;6.45;5.28;;;;;;;;;;6250789;23;20435;-96
2022/10/10 10:01:25;;;;;;;7.35;5.55;;;;;;;;;;6231627;23;20304;-87
2022/10/10 10:04:16;;;;;;;7.20;5.47;;;;;;;;;;6249965;22;20010;-95
2022/10/10 10:06:49;;;;;;;4.97;4.47;;;;;;;;;;6219893;23;20111;-88
2022/10/10 10:09:17;;;;;;;6.20;4.70;;;;;;;;;;6246829;23;20000;-87
2022/10/10 10:11:45;;;;;;;6.75;5.28;;;;;;;;;;6220102;23;20004;-86
2022/10/10 10:14:20;;;;;;;6.60;5.38;;;;;;;;;;6219721;23;20008;-85
2022/10/10 10:16:46;;;;;;;5.57;5.07;;;;;;;;;;6248470;23;20075;-86
2022/10/10 10:19:36;;;;;;;9.02;5.28;;;;;;;;;;6247390;23;20000;-85
2022/10/10 10:22:01;;;;;;;7.22;5.30;;;;;;;;;;6250804;23;20015;-86
2022/10/10 10:24:35;;;;;;;9.30;5.60;;;;;;;;;;6246766;22;20000;-84
2022/10/10 10:27:30;;;;;;;5.68;5.18;;;;;;;;;;6246392;23;20004;-81
2022/10/10 10:29:57;;;;;;;7.30;5.05;;;;;;;;;;6214361;23;20032;-86
2022/10/10 10:33:18;;;;;;;6.88;5.10;;;;;;;;;;6246722;23;20075;-85
2022/10/10 10:35:53;;;;;;;6.70;5.28;;;;;;;;;;6084793;23;20010;-85
2022/10/10 10:38:48;;;;;;;7.85;5.40;;;;;;;;;;6246232;23;20004;-84
2022/10/10 10:41:22;;;;;;;8.18;5.55;;;;;;;;;;6246515;23;20000;-84
2022/10/10 10:44:06;;;;;;;5.68;5.07;;;;;;;;;;6246356;22;20048;-84
2022/10/10 10:46:31;;;;;;;6.45;5.18;;;;;;;;;;6246412;23;20046;-83
2022/10/10 10:49:21;;;;;;;8.40;5.72;;;;;;;;;;6219333;23;20005;-79
2022/10/10 10:52:17;;;;;;;6.47;5.35;;;;;;;;;;6219394;23;20031;-78
2022/10/10 10:55:03;;;;;;;8.23;5.15;;;;;;;;;;6246339;22;20001;-78
2022/10/10 10:57:53;;;;;;;5.60;4.93;;;;;;;;;;6219324;23;20004;-79
2022/10/10 11:00:20;;;;;;;7.38;4.90;;;;;;;;;;6246086;23;20008;-78
2022/10/10 11:03:13;;;;;;;5.60;4.78;;;;;;;;;;6246700;23;20004;-78
2022/10/10 11:05:44;;;;;;;7.72;5.40;;;;;;;;;;6246468;23;20016;-80
2022/10/10 11:08:12;;;;;;;7.78;4.85;;;;;;;;;;6246344;23;20062;-82
2022/10/10 11:10:48;;;;;;;8.73;5.13;;;;;;;;;;6221995;23;20066;-76
2022/10/10 11:13:16;;;;;;;6.15;5.55;;;;;;;;;;6246488;22;20004;-78
2022/10/10 11:15:53;;;;;;;7.07;5.00;;;;;;;;;;6246315;23;20000;-78
2022/10/10 11:18:28;;;;;;;6.28;5.38;;;;;;;;;;6246130;23;20103;-79
2022/10/10 11:21:24;;;;;;;5.75;4.80;;;;;;;;;;6246587;23;20008;-80
2022/10/10 11:23:56;;;;;;;5.82;4.78;;;;;;;;;;6248181;22;19996;-80
2022/10/10 11:26:36;;;;;;;8.30;4.95;;;;;;;;;;6248395;23;20054;-77
2022/10/10 11:29:08;;;;;;;7.72;5.10;;;;;;;;;;6248158;23;20317;-80
2022/10/10 11:31:46;;;;;;;5.55;4.82;;;;;;;;;;6221535;23;20011;-83
2022/10/10 11:34:37;;;;;;;5.78;4.40;;;;;;;;;;6248099;22;19997;-85
2022/10/10 11:37:09;;;;;;;6.72;5.10;;;;;;;;;;6226992;23;20011;-90
2022/10/10 11:39:38;;;;;;;7.30;5.53;;;;;;;;;;6248926;23;20008;-90
2022/10/10 11:42:15;;;;;;;6.00;5.03;;;;;;;;;;6221633;23;20019;-85
2022/10/10 11:45:09;;;;;;;7.80;4.57;;;;;;;;;;6248201;22;20007;-87
2022/10/10 16:43:28;;;;;;;6.68;5.38;;;;;;;;;;6193919;23;20012;-84
2022/10/10 16:45:53;;;;;;;7.30;4.93;;;;;;;;;;6247577;23;20016;-83
2022/10/10 16:48:18;;;;;;;6.13;5.25;;;;;;;;;;6247614;22;20031;-83
2022/10/10 16:50:44;;;;;;;6.45;4.95;;;;;;;;;;6247844;23;20416;-88
2022/10/10 16:53:11;;;;;;;6.85;5.53;;;;;;;;;;6247692;23;20323;-83
2022/10/10 16:55:40;;;;;;;6.40;5.28;;;;;;;;;;6247435;23;20518;-84
2022/10/10 16:58:06;;;;;;;5.88;5.35;;;;;;;;;;6248461;23;20000;-86
2022/10/10 17:00:32;;;;;;;5.65;5.15;;;;;;;;;;6247876;22;20004;-83
2022/10/10 17:02:57;;;;;;;6.00;5.35;;;;;;;;;;6247865;23;20152;-83
2022/10/10 17:05:23;;;;;;;6.18;5.65;;;;;;;;;;6247740;23;20010;-83
2022/10/10 17:07:48;;;;;;;5.72;5.15;;;;;;;;;;6248425;23;20210;-83
2022/10/10 17:10:14;;;;;;;7.13;5.50;;;;;;;;;;6247403;22;20415;-83
2022/10/10 17:12:39;;;;;;;5.60;5.05;;;;;;;;;;6247634;23;20487;-83
2022/10/10 17:15:05;;;;;;;6.20;5.15;;;;;;;;;;6247497;23;20008;-85
2022/10/10 17:17:31;;;;;;;5.28;4.80;;;;;;;;;;6220688;23;20331;-84
2022/10/10 17:19:56;;;;;;;5.70;5.20;;;;;;;;;;6246976;22;20010;-84
2022/10/10 17:22:21;;;;;;;5.55;4.93;;;;;;;;;;6247120;23;20363;-81
2022/10/10 17:24:47;;;;;;;6.93;5.00;;;;;;;;;;6247197;23;20007;-83
2022/10/10 17:27:13;;;;;;;8.57;4.93;;;;;;;;;;6220440;23;20000;-85
2022/10/10 17:29:38;;;;;;;5.57;5.03;;;;;;;;;;6246997;22;20065;-85
2022/10/10 17:32:04;;;;;;;5.10;4.53;;;;;;;;;;6247336;23;20125;-83
2022/10/10 17:34:29;;;;;;;6.18;5.10;;;;;;;;;;6247700;23;20000;-85
2022/10/10 17:36:54;;;;;;;9.07;5.30;;;;;;;;;;6246691;23;20087;-81
2022/10/10 17:39:20;;;;;;;5.40;4.90;;;;;;;;;;6219687;23;20000;-85
2022/10/10 17:41:47;;;;;;;5.97;5.22;;;;;;;;;;6246806;23;20058;-83
2022/10/10 17:44:13;;;;;;;5.30;4.43;;;;;;;;;;6246548;23;20008;-84
2022/10/10 17:46:38;;;;;;;5.32;4.82;;;;;;;;;;6246703;23;20066;-85
2022/10/10 17:49:06;;;;;;;5.20;4.40;;;;;;;;;;6219889;23;20312;-82
2022/10/10 17:51:32;;;;;;;6.68;5.15;;;;;;;;;;6246986;23;20015;-85
2022/10/10 17:53:59;;;;;;;6.13;5.53;;;;;;;;;;6219596;23;20333;-85
2022/10/10 17:56:25;;;;;;;7.93;5.88;;;;;;;;;;6246779;23;20000;-85
2022/10/10 17:58:51;;;;;;;6.32;5.70;;;;;;;;;;6246591;22;20027;-86
2022/10/10 18:01:18;;;;;;;5.78;5.15;;;;;;;;;;6247067;23;20007;-84
2022/10/10 18:03:43;;;;;;;7.60;5.57;;;;;;;;;;6219644;23;20000;-85
2022/10/10 18:06:11;;;;;;;6.65;5.18;;;;;;;;;;6219921;23;20416;-84
2022/10/10 18:08:37;;;;;;;7.15;5.07;;;;;;;;;;6219730;23;20088;-84
2022/10/10 18:11:02;;;;;;;7.95;5.68;;;;;;;;;;6246560;23;20031;-84
2022/10/10 18:13:28;;;;;;;7.43;5.75;;;;;;;;;;6246686;23;20004;-82
2022/10/10 18:16:07;;;;;;;9.00;6.88;;;;;;;;;;6246623;23;20079;-85
2022/10/10 18:18:34;;;;;;;7.20;6.38;;;;;;;;;;6246313;22;20000;-83
2022/10/10 18:21:04;;;;;;;8.55;6.22;;;;;;;;;;6246441;23;20031;-83
2022/10/10 18:23:31;;;;;;;6.80;5.43;;;;;;;;;;6246464;23;20427;-83
2022/10/10 18:26:03;;;;;;;10.38;7.88;;;;;;;;;;6246977;23;20481;-82
2022/10/10 18:28:30;;;;;;;8.57;7.00;;;;;;;;;;6246962;22;20008;-83
2022/10/10 18:30:56;;;;;;;8.05;5.68;;;;;;;;;;6247563;23;20004;-82
2022/10/10 18:33:21;;;;;;;8.00;6.05;;;;;;;;;;6247622;23;20062;-81
2022/10/10 18:35:47;;;;;;;6.47;5.88;;;;;;;;;;6246524;23;20023;-82
2022/10/10 18:38:12;;;;;;;7.00;5.10;;;;;;;;;;6246284;22;20005;-83
2022/10/10 18:40:38;;;;;;;7.90;5.40;;;;;;;;;;6246637;23;20004;-80
2022/10/10 18:43:03;;;;;;;6.72;4.78;;;;;;;;;;6219488;23;20008;-85
2022/10/10 18:45:28;;;;;;;8.57;6.72;;;;;;;;;;6246653;23;20331;-86
2022/10/10 18:47:54;;;;;;;10.30;8.85;;;;;;;;;;6246803;23;20004;-84
2022/10/10 18:50:19;;;;;;;11.55;7.80;;;;;;;;;;6246377;22;20012;-83
2022/10/10 18:52:46;;;;;;;7.82;7.13;;;;;;;;;;6219699;23;20008;-83
2022/10/10 18:55:13;;;;;;;9.40;6.65;;;;;;;;;;6246595;23;20008;-84
2022/10/10 18:57:38;;;;;;;5.90;5.30;;;;;;;;;;6246802;23;20319;-84
2022/10/10 19:00:04;;;;;;;8.77;5.30;;;;;;;;;;6219568;23;20039;-84
2022/10/10 19:02:30;;;;;;;6.97;4.95;;;;;;;;;;6246454;23;20018;-84
2022/10/10 19:04:55;;;;;;;6.63;5.22;;;;;;;;;;6246469;23;20032;-83
2022/10/10 19:07:21;;;;;;;9.70;6.05;;;;;;;;;;6246441;23;20475;-84
2022/10/10 19:09:46;;;;;;;6.85;5.40;;;;;;;;;;6246167;22;20000;-84
2022/10/10 19:12:12;;;;;;;6.80;5.38;;;;;;;;;;6247049;23;20009;-89
2022/10/10 19:14:37;;;;;;;7.45;5.53;;;;;;;;;;6248266;23;19999;-93
2022/10/10 19:17:03;;;;;;;7.18;4.97;;;;;;;;;;6248063;23;20004;-90
2022/10/10 19:19:29;;;;;;;9.63;5.35;;;;;;;;;;6248308;22;20004;-94
2022/10/10 19:21:54;;;;;;;6.13;5.20;;;;;;;;;;6248221;23;20008;-91
2022/10/10 19:24:35;;;;;;;6.88;5.32;;;;;;;;;;6250798;23;20000;-81
2022/10/10 19:27:01;;;;;;;8.05;5.28;;;;;;;;;;6248045;23;20126;-89
2022/10/10 19:29:27;;;;;;;8.65;5.03;;;;;;;;;;6247461;22;20420;-89
2022/10/10 19:31:52;;;;;;;6.63;5.15;;;;;;;;;;6247119;23;20000;-88
2022/10/10 19:34:18;;;;;;;8.68;6.00;;;;;;;;;;6246433;23;20004;-81
2022/10/10 19:36:43;;;;;;;8.88;5.40;;;;;;;;;;6246444;23;19996;-81
2022/10/10 19:39:09;;;;;;;7.00;4.88;;;;;;;;;;6246555;22;20319;-83
2022/10/10 19:41:35;;;;;;;6.03;5.00;;;;;;;;;;6246713;23;20327;-82
2022/10/10 19:44:04;;;;;;;7.38;5.10;;;;;;;;;;6247038;23;20387;-82
2022/10/10 19:46:30;;;;;;;6.25;4.80;;;;;;;;;;6248377;23;20035;-83
2022/10/10 19:48:56;;;;;;;6.18;5.50;;;;;;;;;;6248059;22;20007;-83
2022/10/10 19:51:25;;;;;;;7.15;5.70;;;;;;;;;;6247806;23;20011;-82
2022/10/10 19:53:50;;;;;;;7.15;5.65;;;;;;;;;;6248452;23;20416;-82
2022/10/10 19:56:23;;;;;;;6.57;5.25;;;;;;;;;;6248011;23;20085;-82
2022/10/10 19:58:58;;;;;;;6.82;5.93;;;;;;;;;;6220923;23;20010;-82
2022/10/10 20:01:25;;;;;;;8.18;6.47;;;;;;;;;;6248048;23;20316;-82
2022/10/10 20:03:51;;;;;;;6.60;6.00;;;;;;;;;;6247867;23;20007;-82
2022/10/10 20:06:18;;;;;;;7.25;6.07;;;;;;;;;;6248623;23;20004;-83
2022/10/10 20:08:45;;;;;;;7.78;5.80;;;;;;;;;;6247673;22;20004;-81
2022/10/10 20:11:11;;;;;;;6.88;5.45;;;;;;;;;;6247741;23;20008;-82
2022/10/10 20:13:37;;;;;;;5.55;5.05;;;;;;;;;;6248002;23;20004;-82
2022/10/10 20:16:04;;;;;;;6.07;5.40;;;;;;;;;;6248086;23;20004;-82
2022/10/10 20:18:32;;;;;;;8.43;5.57;;;;;;;;;;6247595;22;20419;-82
2022/10/10 20:20:58;;;;;;;8.18;5.60;;;;;;;;;;6220650;23;20015;-82
2022/10/10 20:23:25;;;;;;;8.13;6.13;;;;;;;;;;6248063;23;20004;-84
2022/10/10 20:25:51;;;;;;;7.95;5.50;;;;;;;;;;6247690;23;20359;-82
2022/10/10 20:28:18;;;;;;;6.40;5.60;;;;;;;;;;6247907;22;20000;-82
2022/10/10 20:30:47;;;;;;;6.80;5.88;;;;;;;;;;6220753;23;20326;-82
2022/10/10 20:33:16;;;;;;;7.20;5.97;;;;;;;;;;6248113;23;20004;-82
2022/10/10 20:35:42;;;;;;;7.38;6.40;;;;;;;;;;6247694;23;20324;-82
2022/10/10 20:38:11;;;;;;;7.50;5.85;;;;;;;;;;6247960;23;19996;-82
2022/10/10 20:40:38;;;;;;;7.18;5.63;;;;;;;;;;6247827;23;20035;-83
2022/10/10 20:43:03;;;;;;;7.40;5.20;;;;;;;;;;6247485;23;20450;-84
2022/10/10 20:45:28;;;;;;;7.57;5.30;;;;;;;;;;6247270;23;20023;-84
2022/10/10 20:47:54;;;;;;;7.55;5.18;;;;;;;;;;6220769;23;20323;-84